createdAt,value
2022-10-13T00:02:25.193Z,99.90
2022-10-13T00:04:54.550Z,99.90
2022-10-13T00:07:24.039Z,99.90
2022-10-13T00:09:55.721Z,99.90
2022-10-13T00:12:22.855Z,99.90
2022-10-13T00:14:52.504Z,99.90
2022-10-13T00:17:21.780Z,99.90
2022-10-13T00:19:48.946Z,99.90
2022-10-13T00:22:16.469Z,99.90
2022-10-13T00:24:51.428Z,99.90
2022-10-13T00:27:21.673Z,99.90
2022-10-13T00:29:48.835Z,99.90
2022-10-13T00:32:16.370Z,99.90
2022-10-13T00:34:43.849Z,99.90
2022-10-13T00:37:13.364Z,99.90
2022-10-13T00:39:45.361Z,99.90
2022-10-13T00:42:17.810Z,99.90
2022-10-13T00:45:22.338Z,99.90
2022-10-13T00:48:02.056Z,99.90
2022-10-13T00:50:39.757Z,99.90
2022-10-13T00:53:16.440Z,99.90
2022-10-13T00:55:46.022Z,99.90
2022-10-13T00:58:19.394Z,99.90
2022-10-13T01:00:51.541Z,99.90
2022-10-13T01:03:24.471Z,99.90
2022-10-13T01:05:57.295Z,99.90
2022-10-13T01:08:29.582Z,99.90
2022-10-13T01:11:22.599Z,99.90
2022-10-13T01:14:35.188Z,99.90
2022-10-13T01:17:48.870Z,99.90
2022-10-13T01:20:30.987Z,99.90
2022-10-13T01:23:11.026Z,99.90
2022-10-13T01:25:56.604Z,99.90
2022-10-13T01:28:45.246Z,99.90
2022-10-13T01:31:44.035Z,99.90
2022-10-13T01:34:42.427Z,99.90
2022-10-13T01:37:34.326Z,99.90
2022-10-13T01:40:08.870Z,99.90
2022-10-13T01:42:56.418Z,99.90
2022-10-13T01:45:31.930Z,99.90
2022-10-13T01:48:08.431Z,99.90
2022-10-13T01:50:44.579Z,99.90
2022-10-13T01:53:13.962Z,99.90
2022-10-13T01:55:55.993Z,99.90
2022-10-13T01:58:28.942Z,99.90
2022-10-13T02:01:19.100Z,99.90
2022-10-13T02:04:31.461Z,99.90
2022-10-13T02:07:19.384Z,99.90
2022-10-13T02:10:07.424Z,99.90
2022-10-13T02:12:53.814Z,99.90
2022-10-13T02:15:32.678Z,99.90
2022-10-13T02:18:02.114Z,99.90
2022-10-13T02:20:30.338Z,99.90
2022-10-13T02:23:04.097Z,99.90
2022-10-13T02:25:35.739Z,99.90
2022-10-13T02:28:05.950Z,99.90
2022-10-13T02:30:44.756Z,99.90
2022-10-13T02:33:15.618Z,99.90
2022-10-13T02:35:50.167Z,99.90
2022-10-13T02:38:17.305Z,99.90
2022-10-13T02:40:44.598Z,99.90
2022-10-13T02:43:14.134Z,99.90
2022-10-13T02:45:41.195Z,99.90
2022-10-13T02:48:10.746Z,99.90
2022-10-13T02:50:38.021Z,99.90
2022-10-13T02:53:07.367Z,99.90
2022-10-13T02:55:37.035Z,99.90
2022-10-13T02:58:08.805Z,99.90
2022-10-13T03:00:39.661Z,99.90
2022-10-13T03:03:07.015Z,99.90
2022-10-13T03:05:38.910Z,99.90
2022-10-13T03:08:06.385Z,99.90
2022-10-13T03:10:40.757Z,99.90
2022-10-13T03:13:12.735Z,99.90
2022-10-13T03:15:42.915Z,99.90
2022-10-13T03:18:12.485Z,99.90
2022-10-13T03:20:39.699Z,99.90
2022-10-13T03:23:09.235Z,99.90
2022-10-13T03:25:37.495Z,99.90
2022-10-13T03:28:04.727Z,99.90
2022-10-13T03:30:36.289Z,99.90
2022-10-13T03:33:08.457Z,99.90
2022-10-13T03:35:36.621Z,99.90
2022-10-13T03:38:06.772Z,99.90
2022-10-13T03:40:38.792Z,99.90
2022-10-13T03:43:06.396Z,99.90
2022-10-13T03:45:37.629Z,99.90
2022-10-13T03:48:05.109Z,99.90
2022-10-13T03:50:32.430Z,99.90
2022-10-13T03:53:04.467Z,99.90
2022-10-13T03:55:34.277Z,99.90
2022-10-13T03:58:03.763Z,99.90
2022-10-13T04:00:35.694Z,99.90
2022-10-13T04:03:05.677Z,99.90
2022-10-13T04:05:34.535Z,99.90
2022-10-13T04:08:04.341Z,99.90
2022-10-13T04:10:36.494Z,99.90
2022-10-13T04:13:05.729Z,99.90
2022-10-13T04:15:41.092Z,99.90
2022-10-13T04:18:13.715Z,99.90
2022-10-13T04:20:43.478Z,99.90
2022-10-13T04:23:15.119Z,99.90
2022-10-13T04:25:50.871Z,99.90
2022-10-13T04:28:18.371Z,99.90
2022-10-13T04:30:49.274Z,99.90
2022-10-13T04:33:19.319Z,99.90
2022-10-13T04:35:48.649Z,99.90
2022-10-13T04:38:18.286Z,99.90
2022-10-13T04:40:47.611Z,99.90
2022-10-13T04:43:19.761Z,99.90
2022-10-13T04:45:51.999Z,99.90
2022-10-13T04:48:21.617Z,99.90
2022-10-13T04:51:02.308Z,99.90
2022-10-13T04:53:30.194Z,99.90
2022-10-13T04:56:02.201Z,99.90
2022-10-13T04:58:29.670Z,99.90
2022-10-13T05:01:01.978Z,99.90
2022-10-13T05:03:31.997Z,99.90
2022-10-13T05:06:01.664Z,99.90
2022-10-13T05:08:33.151Z,99.90
2022-10-13T05:11:03.035Z,99.90
2022-10-13T05:13:30.542Z,99.90
2022-10-13T05:15:58.417Z,99.90
2022-10-13T05:18:30.445Z,99.90
2022-10-13T05:21:16.382Z,99.90
2022-10-13T05:23:45.682Z,99.90
2022-10-13T05:26:18.460Z,99.90
2022-10-13T05:28:45.921Z,99.90
2022-10-13T05:31:19.929Z,99.90
2022-10-13T05:33:51.322Z,99.90
2022-10-13T05:36:26.091Z,99.90
2022-10-13T05:38:58.687Z,99.90
2022-10-13T05:41:29.826Z,99.90
2022-10-13T05:44:02.730Z,99.90
2022-10-13T05:46:35.188Z,99.90
2022-10-13T05:49:04.742Z,99.90
2022-10-13T05:51:54.773Z,99.90
2022-10-13T05:54:36.119Z,99.90
2022-10-13T05:57:08.105Z,99.90
2022-10-13T05:59:44.541Z,99.90
2022-10-13T06:02:16.295Z,99.90
2022-10-13T06:04:47.609Z,99.90
2022-10-13T06:07:16.909Z,99.90
2022-10-13T06:09:47.053Z,99.90
2022-10-13T06:12:16.721Z,99.90
2022-10-13T06:14:44.450Z,99.90
2022-10-13T06:17:14.522Z,99.90
2022-10-13T06:19:45.902Z,99.90
2022-10-13T06:22:17.963Z,99.90
2022-10-13T06:24:49.961Z,99.90
2022-10-13T06:27:22.159Z,99.90
2022-10-13T06:29:54.381Z,99.90
2022-10-13T06:32:24.293Z,99.90
2022-10-13T06:34:51.363Z,99.90
2022-10-13T06:37:26.191Z,99.90
2022-10-13T06:39:56.730Z,99.90
2022-10-13T06:42:24.118Z,99.90
2022-10-13T06:45:08.680Z,99.90
2022-10-13T06:47:38.221Z,99.90
2022-10-13T06:50:07.827Z,99.90
2022-10-13T06:52:39.875Z,99.90
2022-10-13T06:55:07.372Z,99.90
2022-10-13T06:57:35.318Z,99.90
2022-10-13T07:00:08.398Z,99.90
2022-10-13T07:02:37.854Z,99.90
2022-10-13T07:05:05.338Z,99.90
2022-10-13T07:07:37.180Z,99.90
2022-10-13T07:10:06.853Z,99.90
2022-10-13T07:12:37.214Z,99.90
2022-10-13T07:15:04.660Z,99.90
2022-10-13T07:17:33.713Z,99.90
2022-10-13T07:20:07.347Z,99.90
2022-10-13T07:22:35.033Z,99.90
2022-10-13T07:25:07.291Z,99.90
2022-10-13T07:27:34.727Z,99.90
2022-10-13T07:30:02.135Z,99.90
2022-10-13T07:32:32.261Z,99.90
2022-10-13T07:35:05.677Z,99.90
2022-10-13T07:37:35.118Z,99.90
2022-10-13T07:40:05.684Z,99.90
2022-10-13T07:42:33.302Z,99.90
2022-10-13T07:45:03.164Z,99.90
2022-10-13T07:47:32.736Z,99.90
2022-10-13T07:50:02.352Z,99.90
2022-10-13T07:52:29.513Z,99.90
2022-10-13T07:54:59.026Z,99.90
2022-10-13T07:57:27.608Z,99.90
2022-10-13T07:59:56.987Z,99.90
2022-10-13T08:02:24.515Z,99.90
2022-10-13T08:04:57.174Z,99.90
2022-10-13T08:07:24.887Z,99.90
2022-10-13T08:09:56.987Z,99.90
2022-10-13T08:12:28.971Z,99.90
2022-10-13T08:15:05.131Z,99.90
2022-10-13T08:17:40.823Z,99.90
2022-10-13T08:20:08.415Z,99.90
2022-10-13T08:22:38.170Z,99.90
2022-10-13T08:25:07.217Z,99.90
2022-10-13T08:27:50.759Z,99.90
2022-10-13T08:30:23.636Z,99.90
2022-10-13T08:32:51.008Z,99.90
2022-10-13T08:35:22.554Z,99.90
2022-10-13T08:37:57.158Z,99.90
2022-10-13T08:40:31.042Z,99.90
2022-10-13T08:43:00.506Z,99.90
2022-10-13T08:45:41.337Z,99.90
2022-10-13T08:48:22.831Z,99.90
2022-10-13T08:50:56.615Z,99.90
2022-10-13T08:53:28.563Z,99.90
2022-10-13T08:56:07.560Z,99.90
2022-10-13T08:58:39.245Z,99.90
2022-10-13T09:01:32.477Z,99.90
2022-10-13T09:04:36.173Z,99.90
2022-10-13T09:07:11.962Z,99.90
2022-10-13T09:09:39.318Z,99.90
2022-10-13T09:12:14.280Z,99.90
2022-10-13T09:15:05.116Z,99.90
2022-10-13T09:17:34.484Z,99.90
2022-10-13T09:20:20.705Z,99.90
2022-10-13T09:23:20.766Z,99.90
2022-10-13T09:25:52.500Z,99.90
2022-10-13T09:28:29.707Z,99.90
2022-10-13T09:31:16.975Z,99.90
2022-10-13T09:33:56.747Z,99.90
2022-10-13T09:36:31.280Z,99.90
2022-10-13T09:39:17.150Z,99.90
2022-10-13T09:41:49.987Z,99.90
2022-10-13T09:44:28.650Z,99.90
2022-10-13T09:47:02.369Z,99.90
2022-10-13T09:49:41.091Z,99.90
2022-10-13T09:52:14.611Z,99.90
2022-10-13T09:54:51.153Z,99.90
2022-10-13T09:57:28.093Z,99.90
2022-10-13T10:00:10.471Z,99.90
2022-10-13T10:03:22.893Z,99.90
2022-10-13T10:05:55.388Z,99.90
2022-10-13T10:09:04.537Z,99.90
2022-10-13T10:11:43.855Z,99.90
2022-10-13T10:14:31.972Z,99.90
2022-10-13T10:17:45.943Z,99.90
2022-10-13T10:20:36.570Z,99.90
2022-10-13T10:23:34.995Z,99.90
2022-10-13T10:26:31.602Z,99.90
2022-10-13T10:29:21.032Z,99.90
2022-10-13T10:32:09.010Z,99.90
2022-10-13T10:34:57.249Z,99.90
2022-10-13T10:37:33.001Z,99.90
2022-10-13T10:40:24.447Z,99.90
2022-10-13T10:43:35.365Z,99.90
2022-10-13T10:46:21.567Z,99.90
2022-10-13T10:48:51.313Z,99.90
2022-10-13T10:51:27.243Z,99.90
2022-10-13T10:54:36.770Z,99.90
2022-10-13T10:57:35.098Z,99.90
2022-10-13T11:00:20.173Z,99.90
2022-10-13T11:03:19.729Z,99.70
2022-10-13T11:06:24.181Z,99.70
2022-10-13T11:08:55.353Z,99.70
2022-10-13T11:11:25.102Z,99.90
2022-10-13T11:14:00.430Z,99.70
2022-10-13T11:16:40.718Z,99.60
2022-10-13T11:19:37.286Z,99.90
2022-10-13T11:22:15.763Z,99.90
2022-10-13T11:24:53.793Z,99.90
2022-10-13T11:27:34.651Z,99.90
2022-10-13T11:30:43.057Z,99.90
2022-10-13T11:33:37.610Z,99.90
2022-10-13T11:36:37.959Z,99.90
2022-10-13T11:39:28.932Z,99.90
2022-10-13T11:42:43.395Z,99.90
2022-10-13T11:45:41.522Z,99.90
2022-10-13T11:48:38.031Z,99.90
2022-10-13T11:51:40.109Z,99.90
2022-10-13T11:54:24.859Z,99.70
2022-10-13T11:56:56.872Z,99.60
2022-10-13T11:59:31.331Z,99.60
2022-10-13T12:02:18.886Z,99.90
2022-10-13T12:05:02.504Z,99.70
2022-10-13T12:07:35.398Z,99.50
2022-10-13T12:10:07.234Z,99.90
2022-10-13T12:12:37.053Z,99.70
2022-10-13T12:15:37.208Z,99.80
2022-10-13T12:18:24.293Z,99.80
2022-10-13T12:20:57.127Z,99.50
2022-10-13T12:23:31.295Z,99.60
2022-10-13T12:26:01.688Z,99.40
2022-10-13T12:28:51.394Z,99.70
2022-10-13T12:31:24.043Z,99.10
2022-10-13T12:33:56.920Z,98.80
2022-10-13T12:36:36.027Z,98.30
2022-10-13T12:39:14.569Z,98.90
2022-10-13T12:41:47.730Z,98.60
2022-10-13T12:44:20.778Z,98.50
2022-10-13T12:46:53.700Z,98.40
2022-10-13T12:49:31.493Z,99.10
2022-10-13T12:52:14.916Z,98.50
2022-10-13T12:54:56.167Z,97.60
2022-10-13T12:57:38.983Z,97.60
2022-10-13T13:00:18.062Z,97.50
2022-10-13T13:03:06.201Z,97.50
2022-10-13T13:05:51.606Z,97.50
2022-10-13T13:08:29.702Z,97.60
2022-10-13T13:11:00.158Z,97.60
2022-10-13T13:13:31.867Z,97.70
2022-10-13T13:16:15.332Z,97.80
2022-10-13T13:18:51.526Z,97.50
2022-10-13T13:21:19.696Z,97.50
2022-10-13T13:23:52.831Z,97.60
2022-10-13T13:26:29.252Z,97.50
2022-10-13T13:28:59.438Z,97.50
2022-10-13T13:31:34.197Z,97.40
2022-10-13T13:34:01.454Z,97.70
2022-10-13T13:36:31.924Z,97.60
2022-10-13T13:38:59.029Z,97.80
2022-10-13T13:41:31.018Z,97.60
2022-10-13T13:44:02.663Z,97.30
2022-10-13T13:46:32.097Z,97.30
2022-10-13T13:49:02.743Z,97.40
2022-10-13T13:51:30.174Z,97.90
2022-10-13T13:53:59.428Z,97.50
2022-10-13T13:56:28.987Z,96.90
2022-10-13T13:59:01.346Z,96.60
2022-10-13T14:01:28.501Z,96.60
2022-10-13T14:03:58.039Z,96.90
2022-10-13T14:06:31.365Z,97.20
2022-10-13T14:08:58.385Z,97.50
2022-10-13T14:11:28.221Z,97.70
2022-10-13T14:14:03.786Z,97.70
2022-10-13T14:16:35.771Z,97.40
2022-10-13T14:19:06.323Z,97.40
2022-10-13T14:21:36.683Z,97.90
2022-10-13T14:24:12.981Z,97.60
2022-10-13T14:26:40.293Z,97.50
2022-10-13T14:29:11.706Z,97.80
2022-10-13T14:31:43.084Z,97.50
2022-10-13T14:34:10.510Z,97.50
2022-10-13T14:36:38.712Z,97.40
2022-10-13T14:39:05.972Z,97.30
2022-10-13T14:41:38.920Z,97.10
2022-10-13T14:44:06.421Z,97.30
2022-10-13T14:46:33.554Z,97.20
2022-10-13T14:49:04.853Z,97.60
2022-10-13T14:51:35.103Z,97.60
2022-10-13T14:54:06.827Z,97.80
2022-10-13T14:56:38.647Z,98.10
2022-10-13T14:59:07.381Z,98.00
2022-10-13T15:01:41.891Z,98.10
2022-10-13T15:04:09.809Z,98.30
2022-10-13T15:06:41.579Z,98.50
2022-10-13T15:09:13.278Z,98.90
2022-10-13T15:11:46.192Z,99.20
2022-10-13T15:14:13.566Z,99.60
2022-10-13T15:16:40.726Z,99.90
2022-10-13T15:19:07.776Z,99.90
2022-10-13T15:21:37.520Z,99.90
2022-10-13T15:24:04.845Z,99.90
2022-10-13T15:26:34.919Z,99.90
2022-10-13T15:29:02.241Z,99.90
2022-10-13T15:31:31.933Z,99.90
2022-10-13T15:34:00.979Z,99.90
2022-10-13T15:36:35.206Z,99.90
2022-10-13T15:39:09.390Z,99.90
2022-10-13T15:41:41.501Z,99.90
2022-10-13T15:44:16.994Z,99.90
2022-10-13T15:47:06.768Z,99.90
2022-10-13T15:49:38.174Z,99.90
2022-10-13T15:52:08.007Z,99.90
2022-10-13T15:54:37.526Z,99.90
2022-10-13T15:57:09.894Z,99.90
2022-10-13T15:59:39.454Z,99.90
2022-10-13T16:02:11.234Z,99.90
2022-10-13T16:04:40.618Z,99.90
2022-10-13T16:07:12.245Z,99.90
2022-10-13T16:09:39.338Z,99.90
2022-10-13T16:12:08.616Z,99.90
2022-10-13T16:14:35.680Z,99.90
2022-10-13T16:17:03.812Z,99.90
2022-10-13T16:19:33.179Z,99.90
2022-10-13T16:22:00.505Z,99.90
2022-10-13T16:24:29.010Z,99.90
2022-10-13T16:26:58.568Z,99.90
2022-10-13T16:29:26.366Z,99.90
2022-10-13T16:31:54.084Z,99.90
2022-10-13T16:34:25.882Z,99.90
2022-10-13T16:36:56.285Z,99.90
2022-10-13T16:39:29.054Z,99.90
2022-10-13T16:41:56.622Z,99.90
2022-10-13T16:44:25.421Z,99.90
2022-10-13T16:46:53.878Z,99.90
2022-10-13T16:49:26.521Z,99.90
2022-10-13T16:51:56.262Z,99.90
2022-10-13T16:54:25.801Z,99.90
2022-10-13T16:56:55.497Z,99.90
2022-10-13T16:59:22.592Z,99.90
2022-10-13T17:01:49.683Z,99.90
2022-10-13T17:04:22.392Z,99.90
2022-10-13T17:06:52.221Z,99.90
2022-10-13T17:09:19.468Z,99.90
2022-10-13T17:11:48.607Z,99.90
2022-10-13T17:14:18.568Z,99.90
2022-10-13T17:16:45.779Z,99.90
2022-10-13T17:19:17.798Z,99.90
2022-10-13T17:21:49.764Z,99.90
2022-10-13T17:24:19.630Z,99.90
2022-10-13T17:26:51.994Z,99.90
2022-10-13T17:29:23.804Z,99.90
2022-10-13T17:31:56.297Z,99.90
2022-10-13T17:34:26.043Z,99.90
2022-10-13T17:37:00.449Z,99.90
2022-10-13T17:39:30.372Z,99.90
2022-10-13T17:41:57.646Z,99.90
2022-10-13T17:44:26.963Z,99.90
2022-10-13T17:46:58.565Z,99.90
2022-10-13T17:49:25.989Z,99.90
2022-10-13T17:51:57.957Z,99.90
2022-10-13T17:54:27.400Z,99.90
2022-10-13T17:56:56.575Z,99.90
2022-10-13T17:59:29.042Z,99.90
2022-10-13T18:01:56.457Z,99.90
2022-10-13T18:04:29.890Z,99.90
2022-10-13T18:06:59.598Z,99.90
2022-10-13T18:09:29.469Z,99.90
2022-10-13T18:11:58.939Z,99.90
2022-10-13T18:14:28.619Z,99.90
2022-10-13T18:17:00.633Z,99.90
2022-10-13T18:19:27.906Z,99.90
2022-10-13T18:21:57.510Z,99.90
2022-10-13T18:24:25.185Z,99.90
2022-10-13T18:26:55.042Z,99.90
2022-10-13T18:29:24.195Z,99.90
2022-10-13T18:31:54.054Z,99.90
2022-10-13T18:34:24.353Z,99.90
2022-10-13T18:36:55.087Z,99.90
2022-10-13T18:39:27.869Z,99.90
2022-10-13T18:41:56.790Z,99.90
2022-10-13T18:44:36.538Z,99.90
2022-10-13T18:47:06.913Z,99.90
2022-10-13T18:49:34.376Z,99.90
2022-10-13T18:52:04.830Z,99.90
2022-10-13T18:54:32.174Z,99.90
2022-10-13T18:57:04.241Z,99.90
2022-10-13T18:59:38.652Z,99.90
2022-10-13T19:02:06.652Z,99.90
2022-10-13T19:04:35.611Z,99.90
2022-10-13T19:07:03.705Z,99.90
2022-10-13T19:09:30.921Z,99.90
2022-10-13T19:11:58.043Z,99.90
2022-10-13T19:14:30.596Z,99.90
2022-10-13T19:17:02.196Z,99.90
2022-10-13T19:19:32.520Z,99.90
2022-10-13T19:22:03.220Z,99.90
2022-10-13T19:24:30.772Z,99.90
2022-10-13T19:27:00.132Z,99.90
2022-10-13T19:29:34.915Z,99.90
2022-10-13T19:32:04.525Z,99.90
2022-10-13T19:34:34.609Z,99.90
2022-10-13T19:37:07.029Z,99.90
2022-10-13T19:39:39.402Z,99.90
2022-10-13T19:42:06.468Z,99.90
2022-10-13T19:44:40.679Z,99.90
2022-10-13T19:47:10.120Z,99.90
2022-10-13T19:49:42.695Z,99.90
2022-10-13T19:52:14.681Z,99.90
2022-10-13T19:54:42.122Z,99.90
2022-10-13T19:57:14.287Z,99.90
2022-10-13T19:59:47.563Z,99.90
2022-10-13T20:02:17.540Z,99.90
2022-10-13T20:04:45.277Z,99.90
2022-10-13T20:07:14.459Z,99.90
2022-10-13T20:09:48.863Z,99.90
2022-10-13T20:12:23.295Z,99.90
2022-10-13T20:14:50.550Z,99.90
2022-10-13T20:17:20.434Z,99.90
2022-10-13T20:19:50.140Z,99.90
2022-10-13T20:22:21.965Z,99.90
2022-10-13T20:24:51.746Z,99.90
2022-10-13T20:27:21.667Z,99.90
2022-10-13T20:29:49.036Z,99.90
2022-10-13T20:32:18.772Z,99.90
2022-10-13T20:34:48.548Z,99.90
2022-10-13T20:37:16.490Z,99.90
2022-10-13T20:39:47.380Z,99.90
2022-10-13T20:42:14.828Z,99.90
2022-10-13T20:44:44.726Z,99.90
2022-10-13T20:47:11.793Z,99.90
2022-10-13T20:49:39.153Z,99.90
2022-10-13T20:52:06.429Z,99.90
2022-10-13T20:54:33.501Z,99.90
2022-10-13T20:57:00.998Z,99.90
2022-10-13T20:59:28.077Z,99.90
2022-10-13T21:01:57.578Z,99.90
2022-10-13T21:04:24.903Z,99.90
2022-10-13T21:06:54.975Z,99.90
2022-10-13T21:09:22.457Z,99.90
2022-10-13T21:11:51.859Z,99.90
2022-10-13T21:14:19.146Z,99.90
2022-10-13T21:16:48.569Z,99.90
2022-10-13T21:19:21.015Z,99.90
2022-10-13T21:21:50.494Z,99.90
2022-10-13T21:24:22.850Z,99.90
2022-10-13T21:26:50.079Z,99.90
2022-10-13T21:29:17.446Z,99.90
2022-10-13T21:31:44.587Z,99.90
2022-10-13T21:34:14.318Z,99.90
2022-10-13T21:36:48.441Z,99.90
2022-10-13T21:39:15.810Z,99.90
2022-10-13T21:41:45.874Z,99.90
2022-10-13T21:44:14.785Z,99.90
2022-10-13T21:46:41.945Z,99.90
2022-10-13T21:49:11.549Z,99.90
2022-10-13T21:51:40.520Z,99.90
2022-10-13T21:54:10.991Z,99.90
2022-10-13T21:56:47.776Z,99.90
2022-10-13T21:59:14.904Z,99.90
2022-10-13T22:01:44.986Z,99.90
2022-10-13T22:04:17.643Z,99.90
2022-10-13T22:06:52.723Z,99.90
2022-10-13T22:09:27.739Z,99.90
2022-10-13T22:12:03.100Z,99.90
2022-10-13T22:14:35.351Z,99.90
2022-10-13T22:17:04.958Z,99.90
2022-10-13T22:19:36.963Z,99.90
2022-10-13T22:22:06.473Z,99.90
2022-10-13T22:24:36.233Z,99.90
2022-10-13T22:27:06.468Z,99.90
2022-10-13T22:29:36.156Z,99.90
2022-10-13T22:32:05.457Z,99.90
2022-10-13T22:34:37.349Z,99.90
2022-10-13T22:37:04.533Z,99.90
2022-10-13T22:39:34.136Z,99.90
2022-10-13T22:42:10.964Z,99.90
2022-10-13T22:44:42.760Z,99.90
2022-10-13T22:47:13.410Z,99.90
2022-10-13T22:49:43.071Z,99.90
2022-10-13T22:52:17.281Z,99.90
2022-10-13T22:54:47.150Z,99.90
2022-10-13T22:57:16.835Z,99.90
2022-10-13T22:59:48.332Z,99.90
2022-10-13T23:02:22.235Z,99.90
2022-10-13T23:04:51.916Z,99.90
2022-10-13T23:07:19.191Z,99.90
2022-10-13T23:09:46.810Z,99.90
2022-10-13T23:12:18.487Z,99.90
2022-10-13T23:14:45.830Z,99.90
2022-10-13T23:17:15.905Z,99.90
2022-10-13T23:19:45.762Z,99.90
2022-10-13T23:22:15.343Z,99.90
2022-10-13T23:24:48.825Z,99.90
2022-10-13T23:27:16.229Z,99.90
2022-10-13T23:29:50.219Z,99.90
2022-10-13T23:32:19.840Z,99.90
2022-10-13T23:34:47.153Z,99.90
2022-10-13T23:37:15.263Z,99.90
2022-10-13T23:39:42.510Z,99.90
2022-10-13T23:42:11.810Z,99.90
2022-10-13T23:44:40.039Z,99.90
2022-10-13T23:47:09.478Z,99.90
2022-10-13T23:49:39.053Z,99.90
2022-10-13T23:52:10.818Z,99.90
2022-10-13T23:54:40.544Z,99.90
2022-10-13T23:57:13.453Z,99.90
2022-10-13T23:59:40.797Z,99.90
